createdAt,value
2023-05-04T00:00:03.126Z,11.04
2023-05-04T00:07:01.820Z,11.04
2023-05-04T00:14:01.725Z,10.87
2023-05-04T00:21:01.672Z,10.79
2023-05-04T00:28:01.777Z,10.79
2023-05-04T00:35:01.640Z,10.84
2023-05-04T00:42:01.755Z,10.84
2023-05-04T00:49:01.918Z,10.3
2023-05-04T00:56:02.122Z,10.3
2023-05-04T01:00:01.797Z,10.38
2023-05-04T01:07:01.449Z,10.38
2023-05-04T01:14:02.255Z,10.42
2023-05-04T01:21:01.792Z,10.42
2023-05-04T01:28:01.576Z,10.51
2023-05-04T01:35:01.676Z,10.51
2023-05-04T01:42:01.405Z,10.15
2023-05-04T01:49:02.272Z,10.15
2023-05-04T01:56:01.430Z,10.43
2023-05-04T02:00:02.414Z,10.43
2023-05-04T02:07:02.005Z,10.21
2023-05-04T02:14:01.404Z,10.21
2023-05-04T02:21:02.126Z,10.16
2023-05-04T02:28:01.515Z,10.16
2023-05-04T02:35:02.307Z,9.98
2023-05-04T02:42:02.105Z,9.96
2023-05-04T02:49:01.888Z,9.96
2023-05-04T02:56:01.569Z,9.88
2023-05-04T03:00:02.500Z,9.88
2023-05-04T03:07:01.424Z,9.88
2023-05-04T03:14:01.789Z,9.73
2023-05-04T03:21:01.904Z,9.65
2023-05-04T03:28:01.598Z,9.65
2023-05-04T03:35:03.965Z,9.58
2023-05-04T03:42:01.594Z,9.58
2023-05-04T03:49:01.722Z,9.43
2023-05-04T03:56:01.902Z,9.43
2023-05-04T04:00:02.656Z,9.3
2023-05-04T04:07:01.637Z,9.3
2023-05-04T04:14:01.520Z,9.18
2023-05-04T04:21:01.896Z,9.18
2023-05-04T04:28:02.012Z,9.1
2023-05-04T04:35:01.609Z,9.1
2023-05-04T04:42:01.875Z,9.04
2023-05-04T04:49:01.941Z,9.04
2023-05-04T04:56:01.874Z,9.02
2023-05-04T05:00:02.804Z,9.02
2023-05-04T05:07:01.960Z,9.05
2023-05-04T05:14:01.950Z,9.05
2023-05-04T05:21:01.883Z,9.16
2023-05-04T05:28:01.780Z,9.16
2023-05-04T05:35:01.852Z,9.45
2023-05-04T05:42:02.182Z,9.77
2023-05-04T05:49:01.979Z,9.77
2023-05-04T05:56:01.912Z,10.09
2023-05-04T06:00:02.832Z,10.09
2023-05-04T06:07:01.384Z,10.09
2023-05-04T06:14:02.011Z,10.21
2023-05-04T06:21:02.033Z,10.49
2023-05-04T06:28:02.036Z,10.49
2023-05-04T06:35:02.729Z,10.15
2023-05-04T06:42:01.721Z,10.15
2023-05-04T06:49:01.528Z,11.05
2023-05-04T06:56:02.248Z,11.05
2023-05-04T07:00:01.846Z,11.43
2023-05-04T07:07:01.598Z,11.43
2023-05-04T07:14:02.206Z,11.84
2023-05-04T07:21:21.756Z,11.84
2023-05-04T07:28:01.920Z,12.11
2023-05-04T07:35:02.723Z,12.11
2023-05-04T07:42:01.388Z,12.29
2023-05-04T07:49:01.852Z,12.29
2023-05-04T07:56:01.449Z,12.78
2023-05-04T08:00:02.089Z,12.78
2023-05-04T08:07:01.410Z,13.08
2023-05-04T08:14:01.779Z,13.08
2023-05-04T08:21:01.647Z,13.41
2023-05-04T08:28:01.693Z,13.41
2023-05-04T08:35:02.082Z,13.62
2023-05-04T08:42:01.879Z,13.93
2023-05-04T08:49:01.556Z,13.93
2023-05-04T08:56:01.341Z,14.22
2023-05-04T09:00:01.917Z,14.22
2023-05-04T09:07:01.988Z,14.22
2023-05-04T09:14:02.120Z,14.69
2023-05-04T09:21:02.274Z,14.81
2023-05-04T09:28:01.440Z,14.81
2023-05-04T09:35:01.540Z,15.14
2023-05-04T09:42:02.151Z,15.14
2023-05-04T09:49:01.795Z,15.43
2023-05-04T09:56:03.880Z,15.43
2023-05-04T10:00:02.671Z,15.76
2023-05-04T10:07:01.772Z,15.76
2023-05-04T10:14:02.108Z,15.99
2023-05-04T10:21:01.829Z,15.99
2023-05-04T10:28:02.214Z,16.18
2023-05-04T10:35:02.444Z,16.18
2023-05-04T10:42:01.403Z,16.33
2023-05-04T10:49:02.303Z,16.33
2023-05-04T10:56:01.701Z,16.6
2023-05-04T11:00:02.336Z,16.6
2023-05-04T11:07:01.717Z,16.76
2023-05-04T11:14:01.460Z,16.76
2023-05-04T11:21:01.856Z,16.96
2023-05-04T11:28:01.936Z,16.96
2023-05-04T11:35:02.454Z,17.19
2023-05-04T11:42:02.010Z,17.35
2023-05-04T11:49:01.426Z,17.35
2023-05-04T11:56:01.892Z,17.3
2023-05-04T12:00:02.475Z,17.3
2023-05-04T12:07:02.260Z,17.3
2023-05-04T12:14:02.085Z,17.62
2023-05-04T12:21:03.900Z,17.73
2023-05-04T12:28:01.679Z,17.73
2023-05-04T12:35:01.910Z,17.82
2023-05-04T12:42:01.607Z,17.82
2023-05-04T12:49:02.292Z,17.86
2023-05-04T12:56:02.054Z,17.86
2023-05-04T13:00:01.570Z,18.18
2023-05-04T13:07:02.110Z,18.18
2023-05-04T13:14:01.596Z,18.36
2023-05-04T13:21:01.857Z,18.36
2023-05-04T13:28:01.976Z,18.5
2023-05-04T13:35:01.656Z,18.5
2023-05-04T13:42:02.271Z,18.57
2023-05-04T13:49:01.786Z,18.57
2023-05-04T13:56:01.948Z,18.76
2023-05-04T14:00:07.525Z,18.76
2023-05-04T14:07:02.001Z,18.81
2023-05-04T14:14:02.026Z,18.81
2023-05-04T14:21:02.206Z,18.86
2023-05-04T14:28:01.752Z,18.86
2023-05-04T14:35:02.149Z,19.01
2023-05-04T14:42:01.335Z,19.19
2023-05-04T14:49:01.729Z,19.19
2023-05-04T14:56:01.810Z,19.33
2023-05-04T15:00:02.549Z,19.33
2023-05-04T15:07:01.611Z,19.33
2023-05-04T15:14:01.968Z,19.4
2023-05-04T15:21:01.748Z,19.52
2023-05-04T15:28:01.854Z,19.52
2023-05-04T15:35:07.939Z,19.41
2023-05-04T15:42:02.111Z,19.41
2023-05-04T15:49:01.877Z,19.52
2023-05-04T15:56:01.557Z,19.52
2023-05-04T16:00:02.202Z,19.69
2023-05-04T16:07:01.656Z,19.69
2023-05-04T16:14:02.048Z,19.63
2023-05-04T16:21:01.823Z,19.63
2023-05-04T16:28:02.287Z,19.58
2023-05-04T16:35:02.561Z,19.58
2023-05-04T16:42:01.926Z,19.52
2023-05-04T16:49:01.710Z,19.52
2023-05-04T16:56:01.927Z,19.61
2023-05-04T17:00:02.639Z,19.61
2023-05-04T17:07:02.141Z,19.6
2023-05-04T17:14:01.570Z,19.6
2023-05-04T17:21:01.690Z,19.52
2023-05-04T17:28:01.774Z,19.52
2023-05-04T17:35:12.173Z,19.45
2023-05-04T17:42:01.417Z,19.45
2023-05-04T17:49:01.343Z,19.49
2023-05-04T17:56:01.896Z,19.41
2023-05-04T18:00:02.629Z,19.41
2023-05-04T18:07:01.542Z,19.41
2023-05-04T18:14:02.088Z,19.36
2023-05-04T18:21:02.184Z,19.41
2023-05-04T18:28:01.379Z,19.41
2023-05-04T18:35:02.406Z,19.4
2023-05-04T18:42:01.679Z,19.4
2023-05-04T18:49:01.724Z,19.4
2023-05-04T18:56:01.954Z,19.4
2023-05-04T19:00:02.666Z,19.4
2023-05-04T19:07:01.466Z,19.27
2023-05-04T19:14:01.710Z,18.96
2023-05-04T19:21:02.260Z,18.96
2023-05-04T19:28:02.010Z,18.79
2023-05-04T19:35:02.649Z,18.79
2023-05-04T19:42:01.421Z,18.44
2023-05-04T19:49:01.535Z,18.44
2023-05-04T19:56:02.227Z,18.45
2023-05-04T20:00:01.792Z,18.45
2023-05-04T20:07:02.051Z,18.19
2023-05-04T20:14:01.754Z,18.19
2023-05-04T20:21:01.839Z,18.14
2023-05-04T20:28:01.876Z,18.14
2023-05-04T20:35:02.387Z,17.95
2023-05-04T20:42:01.365Z,17.95
2023-05-04T20:49:02.108Z,17.8
2023-05-04T20:56:01.642Z,17.41
2023-05-04T21:00:02.333Z,17.41
2023-05-04T21:07:02.160Z,17.41
2023-05-04T21:14:01.456Z,17.37
2023-05-04T21:21:02.247Z,17.37
2023-05-04T21:28:01.336Z,17.47
2023-05-04T21:35:02.531Z,16.65
2023-05-04T21:42:01.871Z,16.65
2023-05-04T21:49:01.813Z,16.95
2023-05-04T21:56:01.899Z,16.95
2023-05-04T22:00:02.612Z,16.89
2023-05-04T22:07:01.650Z,16.89
2023-05-04T22:14:01.861Z,17.09
2023-05-04T22:21:01.640Z,17.09
2023-05-04T22:28:01.657Z,17.05
2023-05-04T22:35:01.753Z,17.05
2023-05-04T22:42:01.952Z,16.94
2023-05-04T22:49:02.185Z,16.94
2023-05-04T22:56:01.456Z,16.88
2023-05-04T23:00:02.047Z,16.88
2023-05-04T23:07:02.190Z,16.75
2023-05-04T23:14:01.572Z,16.75
2023-05-04T23:21:01.465Z,16.82
2023-05-04T23:28:01.423Z,16.82
2023-05-04T23:35:02.644Z,16.82
2023-05-04T23:42:02.274Z,16.82
2023-05-04T23:49:01.924Z,16.8
2023-05-04T23:56:03.774Z,16.67
